sensor_id;sensor_type;location;lat;lon;timestamp;P1;durP1;ratioP1;P2;durP2;ratioP2
15476;SDS011;7840;42.702;23.296;2022-07-04T00:00:51;4.30;;;3.95;;
15476;SDS011;7840;42.702;23.296;2022-07-04T00:03:19;7.47;;;4.18;;
15476;SDS011;7840;42.702;23.296;2022-07-04T00:05:46;5.18;;;4.50;;
15476;SDS011;7840;42.702;23.296;2022-07-04T00:08:15;4.47;;;3.90;;
15476;SDS011;7840;42.702;23.296;2022-07-04T00:10:55;4.43;;;3.78;;
15476;SDS011;7840;42.702;23.296;2022-07-04T00:13:23;6.10;;;3.50;;
15476;SDS011;7840;42.702;23.296;2022-07-04T00:15:54;6.97;;;3.78;;
15476;SDS011;7840;42.702;23.296;2022-07-04T00:18:22;7.88;;;3.83;;
15476;SDS011;7840;42.702;23.296;2022-07-04T00:20:52;8.13;;;3.75;;
15476;SDS011;7840;42.702;23.296;2022-07-04T00:23:21;7.93;;;3.90;;
15476;SDS011;7840;42.702;23.296;2022-07-04T00:25:51;5.03;;;4.03;;
15476;SDS011;7840;42.702;23.296;2022-07-04T00:28:19;7.45;;;3.90;;
15476;SDS011;7840;42.702;23.296;2022-07-04T00:31:01;8.30;;;4.00;;
15476;SDS011;7840;42.702;23.296;2022-07-04T00:33:29;6.55;;;3.78;;
15476;SDS011;7840;42.702;23.296;2022-07-04T00:36:00;7.22;;;3.90;;
15476;SDS011;7840;42.702;23.296;2022-07-04T00:38:37;5.85;;;4.10;;
15476;SDS011;7840;42.702;23.296;2022-07-04T00:41:14;5.53;;;3.90;;
15476;SDS011;7840;42.702;23.296;2022-07-04T00:43:46;5.93;;;4.15;;
15476;SDS011;7840;42.702;23.296;2022-07-04T00:46:26;5.72;;;3.90;;
15476;SDS011;7840;42.702;23.296;2022-07-04T00:48:54;5.50;;;4.10;;
15476;SDS011;7840;42.702;23.296;2022-07-04T00:51:22;4.70;;;4.18;;
15476;SDS011;7840;42.702;23.296;2022-07-04T00:53:51;4.38;;;3.97;;
15476;SDS011;7840;42.702;23.296;2022-07-04T00:56:20;5.85;;;3.90;;
15476;SDS011;7840;42.702;23.296;2022-07-04T00:58:48;5.38;;;3.63;;
15476;SDS011;7840;42.702;23.296;2022-07-04T01:01:29;3.97;;;3.55;;
15476;SDS011;7840;42.702;23.296;2022-07-04T01:03:57;6.40;;;3.63;;
15476;SDS011;7840;42.702;23.296;2022-07-04T01:06:26;6.45;;;3.42;;
15476;SDS011;7840;42.702;23.296;2022-07-04T01:08:55;4.28;;;3.38;;
15476;SDS011;7840;42.702;23.296;2022-07-04T01:11:25;5.90;;;3.90;;
15476;SDS011;7840;42.702;23.296;2022-07-04T01:13:53;9.77;;;3.70;;
15476;SDS011;7840;42.702;23.296;2022-07-04T01:16:21;5.43;;;3.80;;
15476;SDS011;7840;42.702;23.296;2022-07-04T01:18:52;3.63;;;2.97;;
15476;SDS011;7840;42.702;23.296;2022-07-04T01:21:26;3.75;;;3.45;;
15476;SDS011;7840;42.702;23.296;2022-07-04T01:23:54;6.45;;;3.72;;
15476;SDS011;7840;42.702;23.296;2022-07-04T01:26:21;8.85;;;3.30;;
15476;SDS011;7840;42.702;23.296;2022-07-04T01:28:55;4.20;;;3.38;;
15476;SDS011;7840;42.702;23.296;2022-07-04T01:31:36;4.85;;;3.42;;
15476;SDS011;7840;42.702;23.296;2022-07-04T01:34:04;5.07;;;3.25;;
15476;SDS011;7840;42.702;23.296;2022-07-04T01:36:35;7.90;;;3.15;;
15476;SDS011;7840;42.702;23.296;2022-07-04T01:39:13;6.07;;;3.33;;
15476;SDS011;7840;42.702;23.296;2022-07-04T01:41:46;6.10;;;3.25;;
15476;SDS011;7840;42.702;23.296;2022-07-04T01:44:15;7.50;;;3.22;;
15476;SDS011;7840;42.702;23.296;2022-07-04T01:46:42;4.10;;;3.40;;
15476;SDS011;7840;42.702;23.296;2022-07-04T01:49:13;7.50;;;3.35;;
15476;SDS011;7840;42.702;23.296;2022-07-04T01:51:45;7.85;;;3.40;;
15476;SDS011;7840;42.702;23.296;2022-07-04T01:54:13;3.88;;;3.15;;
15476;SDS011;7840;42.702;23.296;2022-07-04T01:56:51;7.85;;;3.33;;
15476;SDS011;7840;42.702;23.296;2022-07-04T01:59:20;6.28;;;3.22;;
15476;SDS011;7840;42.702;23.296;2022-07-04T02:02:09;4.25;;;3.08;;
15476;SDS011;7840;42.702;23.296;2022-07-04T02:04:46;5.85;;;3.33;;
15476;SDS011;7840;42.702;23.296;2022-07-04T02:07:16;5.25;;;3.22;;
15476;SDS011;7840;42.702;23.296;2022-07-04T02:09:44;6.13;;;3.25;;
15476;SDS011;7840;42.702;23.296;2022-07-04T02:12:12;6.97;;;3.40;;
15476;SDS011;7840;42.702;23.296;2022-07-04T02:15:17;7.65;;;3.13;;
15476;SDS011;7840;42.702;23.296;2022-07-04T02:17:45;6.35;;;3.30;;
15476;SDS011;7840;42.702;23.296;2022-07-04T02:20:12;4.78;;;3.22;;
15476;SDS011;7840;42.702;23.296;2022-07-04T02:22:42;5.18;;;3.60;;
15476;SDS011;7840;42.702;23.296;2022-07-04T02:25:09;6.28;;;3.20;;
15476;SDS011;7840;42.702;23.296;2022-07-04T02:27:37;9.80;;;3.88;;
15476;SDS011;7840;42.702;23.296;2022-07-04T02:30:05;5.85;;;3.42;;
15476;SDS011;7840;42.702;23.296;2022-07-04T02:32:34;5.15;;;3.25;;
15476;SDS011;7840;42.702;23.296;2022-07-04T02:35:15;5.70;;;3.28;;
15476;SDS011;7840;42.702;23.296;2022-07-04T02:37:45;4.97;;;3.67;;
15476;SDS011;7840;42.702;23.296;2022-07-04T02:40:30;5.43;;;3.38;;
15476;SDS011;7840;42.702;23.296;2022-07-04T02:45:28;8.90;;;3.85;;
15476;SDS011;7840;42.702;23.296;2022-07-04T02:47:56;8.52;;;3.83;;
15476;SDS011;7840;42.702;23.296;2022-07-04T02:50:26;5.15;;;4.03;;
15476;SDS011;7840;42.702;23.296;2022-07-04T02:53:06;5.80;;;3.85;;
15476;SDS011;7840;42.702;23.296;2022-07-04T02:55:36;7.30;;;4.20;;
15476;SDS011;7840;42.702;23.296;2022-07-04T02:58:04;9.65;;;3.70;;
15476;SDS011;7840;42.702;23.296;2022-07-04T03:00:32;8.40;;;4.00;;
15476;SDS011;7840;42.702;23.296;2022-07-04T03:03:03;4.50;;;3.92;;
15476;SDS011;7840;42.702;23.296;2022-07-04T03:05:33;5.15;;;3.65;;
15476;SDS011;7840;42.702;23.296;2022-07-04T03:08:01;8.45;;;3.42;;
15476;SDS011;7840;42.702;23.296;2022-07-04T03:10:33;4.03;;;3.17;;
15476;SDS011;7840;42.702;23.296;2022-07-04T03:13:15;3.90;;;3.50;;
15476;SDS011;7840;42.702;23.296;2022-07-04T03:15:43;8.20;;;3.50;;
15476;SDS011;7840;42.702;23.296;2022-07-04T03:18:11;3.63;;;3.33;;
15476;SDS011;7840;42.702;23.296;2022-07-04T03:20:49;4.90;;;3.45;;
15476;SDS011;7840;42.702;23.296;2022-07-04T03:23:17;5.70;;;3.30;;
15476;SDS011;7840;42.702;23.296;2022-07-04T03:25:53;11.75;;;3.72;;
15476;SDS011;7840;42.702;23.296;2022-07-04T03:28:22;8.13;;;3.45;;
15476;SDS011;7840;42.702;23.296;2022-07-04T03:30:50;12.02;;;3.70;;
15476;SDS011;7840;42.702;23.296;2022-07-04T03:33:18;8.40;;;3.58;;
15476;SDS011;7840;42.702;23.296;2022-07-04T03:35:47;7.28;;;3.42;;
15476;SDS011;7840;42.702;23.296;2022-07-04T03:38:18;5.05;;;3.30;;
15476;SDS011;7840;42.702;23.296;2022-07-04T03:40:45;6.60;;;3.40;;
15476;SDS011;7840;42.702;23.296;2022-07-04T03:43:14;8.85;;;3.85;;
15476;SDS011;7840;42.702;23.296;2022-07-04T03:45:42;5.95;;;3.28;;
15476;SDS011;7840;42.702;23.296;2022-07-04T03:48:10;5.32;;;3.00;;
15476;SDS011;7840;42.702;23.296;2022-07-04T03:50:37;4.55;;;3.10;;
15476;SDS011;7840;42.702;23.296;2022-07-04T03:53:22;5.90;;;2.80;;
15476;SDS011;7840;42.702;23.296;2022-07-04T03:55:50;5.68;;;3.08;;
15476;SDS011;7840;42.702;23.296;2022-07-04T03:58:21;7.20;;;3.30;;
15476;SDS011;7840;42.702;23.296;2022-07-04T04:00:49;5.55;;;3.70;;
15476;SDS011;7840;42.702;23.296;2022-07-04T04:03:17;7.95;;;4.22;;
15476;SDS011;7840;42.702;23.296;2022-07-04T04:06:02;5.55;;;4.05;;
15476;SDS011;7840;42.702;23.296;2022-07-04T04:08:44;7.78;;;3.28;;
15476;SDS011;7840;42.702;23.296;2022-07-04T04:11:11;3.88;;;2.95;;
15476;SDS011;7840;42.702;23.296;2022-07-04T04:13:54;5.63;;;3.45;;
15476;SDS011;7840;42.702;23.296;2022-07-04T04:16:21;7.80;;;3.60;;
15476;SDS011;7840;42.702;23.296;2022-07-04T04:18:49;8.73;;;4.80;;
15476;SDS011;7840;42.702;23.296;2022-07-04T04:21:16;9.55;;;4.90;;
15476;SDS011;7840;42.702;23.296;2022-07-04T04:23:44;8.95;;;5.13;;
15476;SDS011;7840;42.702;23.296;2022-07-04T04:26:12;10.98;;;5.47;;
15476;SDS011;7840;42.702;23.296;2022-07-04T04:28:39;12.23;;;5.50;;
15476;SDS011;7840;42.702;23.296;2022-07-04T04:31:11;14.07;;;5.88;;
15476;SDS011;7840;42.702;23.296;2022-07-04T04:33:39;7.10;;;5.32;;
15476;SDS011;7840;42.702;23.296;2022-07-04T04:36:07;9.82;;;6.55;;
15476;SDS011;7840;42.702;23.296;2022-07-04T04:38:34;9.07;;;6.53;;
15476;SDS011;7840;42.702;23.296;2022-07-04T04:41:02;14.50;;;7.50;;
15476;SDS011;7840;42.702;23.296;2022-07-04T04:43:30;16.30;;;7.13;;
15476;SDS011;7840;42.702;23.296;2022-07-04T04:45:57;8.85;;;6.95;;
15476;SDS011;7840;42.702;23.296;2022-07-04T04:48:27;7.07;;;6.20;;
15476;SDS011;7840;42.702;23.296;2022-07-04T04:50:54;9.05;;;6.50;;
15476;SDS011;7840;42.702;23.296;2022-07-04T04:53:22;11.75;;;7.45;;
15476;SDS011;7840;42.702;23.296;2022-07-04T04:55:50;9.43;;;6.43;;
15476;SDS011;7840;42.702;23.296;2022-07-04T04:58:19;9.98;;;7.03;;
15476;SDS011;7840;42.702;23.296;2022-07-04T05:00:46;9.40;;;6.68;;
15476;SDS011;7840;42.702;23.296;2022-07-04T05:03:16;9.82;;;6.55;;
15476;SDS011;7840;42.702;23.296;2022-07-04T05:05:45;10.02;;;6.88;;
15476;SDS011;7840;42.702;23.296;2022-07-04T05:08:14;7.78;;;6.75;;
15476;SDS011;7840;42.702;23.296;2022-07-04T05:10:56;11.35;;;6.88;;
15476;SDS011;7840;42.702;23.296;2022-07-04T05:13:24;9.90;;;6.57;;
15476;SDS011;7840;42.702;23.296;2022-07-04T05:15:52;10.73;;;5.85;;
15476;SDS011;7840;42.702;23.296;2022-07-04T05:18:21;12.52;;;6.53;;
15476;SDS011;7840;42.702;23.296;2022-07-04T05:20:55;11.32;;;5.80;;
15476;SDS011;7840;42.702;23.296;2022-07-04T05:23:28;11.02;;;6.80;;
15476;SDS011;7840;42.702;23.296;2022-07-04T05:25:56;7.60;;;6.65;;
15476;SDS011;7840;42.702;23.296;2022-07-04T05:28:28;9.63;;;6.63;;
15476;SDS011;7840;42.702;23.296;2022-07-04T05:30:59;9.05;;;6.40;;
15476;SDS011;7840;42.702;23.296;2022-07-04T05:33:31;6.88;;;5.70;;
15476;SDS011;7840;42.702;23.296;2022-07-04T05:36:08;11.85;;;5.50;;
15476;SDS011;7840;42.702;23.296;2022-07-04T05:39:00;12.95;;;5.85;;
15476;SDS011;7840;42.702;23.296;2022-07-04T05:41:30;9.48;;;6.15;;
15476;SDS011;7840;42.702;23.296;2022-07-04T05:44:04;12.48;;;6.25;;
15476;SDS011;7840;42.702;23.296;2022-07-04T05:46:32;9.70;;;6.07;;
15476;SDS011;7840;42.702;23.296;2022-07-04T05:48:59;8.63;;;5.63;;
15476;SDS011;7840;42.702;23.296;2022-07-04T05:51:28;7.75;;;5.68;;
15476;SDS011;7840;42.702;23.296;2022-07-04T05:53:56;8.27;;;5.57;;
15476;SDS011;7840;42.702;23.296;2022-07-04T05:56:26;10.43;;;5.55;;
15476;SDS011;7840;42.702;23.296;2022-07-04T05:58:55;11.75;;;5.38;;
15476;SDS011;7840;42.702;23.296;2022-07-04T06:01:25;13.00;;;5.03;;
15476;SDS011;7840;42.702;23.296;2022-07-04T06:03:58;9.35;;;4.55;;
15476;SDS011;7840;42.702;23.296;2022-07-04T06:06:26;6.75;;;4.90;;
15476;SDS011;7840;42.702;23.296;2022-07-04T06:08:56;7.43;;;4.25;;
15476;SDS011;7840;42.702;23.296;2022-07-04T06:11:24;13.32;;;4.72;;
15476;SDS011;7840;42.702;23.296;2022-07-04T06:13:52;10.10;;;4.03;;
15476;SDS011;7840;42.702;23.296;2022-07-04T06:16:20;10.45;;;4.25;;
15476;SDS011;7840;42.702;23.296;2022-07-04T06:18:48;4.60;;;3.90;;
15476;SDS011;7840;42.702;23.296;2022-07-04T06:21:18;5.32;;;4.07;;
15476;SDS011;7840;42.702;23.296;2022-07-04T06:23:48;8.77;;;3.72;;
15476;SDS011;7840;42.702;23.296;2022-07-04T06:26:16;7.63;;;4.13;;
15476;SDS011;7840;42.702;23.296;2022-07-04T06:28:43;8.88;;;3.67;;
15476;SDS011;7840;42.702;23.296;2022-07-04T06:31:28;8.88;;;3.70;;
15476;SDS011;7840;42.702;23.296;2022-07-04T06:33:58;8.38;;;3.85;;
15476;SDS011;7840;42.702;23.296;2022-07-04T06:36:46;11.40;;;4.00;;
15476;SDS011;7840;42.702;23.296;2022-07-04T06:39:20;6.00;;;3.33;;
15476;SDS011;7840;42.702;23.296;2022-07-04T06:41:50;5.15;;;3.13;;
15476;SDS011;7840;42.702;23.296;2022-07-04T06:44:31;4.03;;;2.63;;
15476;SDS011;7840;42.702;23.296;2022-07-04T06:46:59;5.78;;;2.90;;
15476;SDS011;7840;42.702;23.296;2022-07-04T06:49:26;4.72;;;2.80;;
15476;SDS011;7840;42.702;23.296;2022-07-04T06:51:54;6.35;;;3.28;;
15476;SDS011;7840;42.702;23.296;2022-07-04T06:54:31;4.65;;;3.33;;
15476;SDS011;7840;42.702;23.296;2022-07-04T06:57:02;7.40;;;3.65;;
15476;SDS011;7840;42.702;23.296;2022-07-04T06:59:30;6.53;;;3.13;;
15476;SDS011;7840;42.702;23.296;2022-07-04T07:01:58;4.10;;;2.97;;
15476;SDS011;7840;42.702;23.296;2022-07-04T07:04:25;4.25;;;3.28;;
15476;SDS011;7840;42.702;23.296;2022-07-04T07:06:56;11.52;;;3.45;;
15476;SDS011;7840;42.702;23.296;2022-07-04T07:09:39;8.32;;;3.22;;
15476;SDS011;7840;42.702;23.296;2022-07-04T07:12:21;9.02;;;3.42;;
15476;SDS011;7840;42.702;23.296;2022-07-04T07:14:51;7.75;;;3.72;;
15476;SDS011;7840;42.702;23.296;2022-07-04T07:17:20;5.97;;;3.30;;
15476;SDS011;7840;42.702;23.296;2022-07-04T07:19:47;6.57;;;3.33;;
15476;SDS011;7840;42.702;23.296;2022-07-04T07:22:15;5.75;;;3.38;;
15476;SDS011;7840;42.702;23.296;2022-07-04T07:24:44;4.63;;;3.42;;
15476;SDS011;7840;42.702;23.296;2022-07-04T07:27:12;8.25;;;3.50;;
15476;SDS011;7840;42.702;23.296;2022-07-04T07:29:54;7.85;;;3.33;;
15476;SDS011;7840;42.702;23.296;2022-07-04T07:32:23;12.68;;;3.63;;
15476;SDS011;7840;42.702;23.296;2022-07-04T07:35:05;7.53;;;3.67;;
15476;SDS011;7840;42.702;23.296;2022-07-04T07:37:38;5.40;;;3.50;;
15476;SDS011;7840;42.702;23.296;2022-07-04T07:40:23;7.13;;;3.50;;
15476;SDS011;7840;42.702;23.296;2022-07-04T07:42:56;6.43;;;3.40;;
15476;SDS011;7840;42.702;23.296;2022-07-04T07:45:24;10.88;;;4.53;;
15476;SDS011;7840;42.702;23.296;2022-07-04T07:47:51;8.07;;;3.80;;
15476;SDS011;7840;42.702;23.296;2022-07-04T07:50:19;10.10;;;4.10;;
15476;SDS011;7840;42.702;23.296;2022-07-04T07:52:47;5.28;;;4.03;;
15476;SDS011;7840;42.702;23.296;2022-07-04T07:55:14;7.97;;;4.10;;
15476;SDS011;7840;42.702;23.296;2022-07-04T07:57:44;6.00;;;3.90;;
15476;SDS011;7840;42.702;23.296;2022-07-04T08:00:12;8.93;;;3.80;;
15476;SDS011;7840;42.702;23.296;2022-07-04T08:02:49;4.85;;;3.75;;
15476;SDS011;7840;42.702;23.296;2022-07-04T08:05:34;6.63;;;3.72;;
15476;SDS011;7840;42.702;23.296;2022-07-04T08:08:20;9.10;;;3.88;;
15476;SDS011;7840;42.702;23.296;2022-07-04T08:10:49;9.93;;;4.25;;
15476;SDS011;7840;42.702;23.296;2022-07-04T08:13:26;5.15;;;4.00;;
15476;SDS011;7840;42.702;23.296;2022-07-04T08:16:00;6.63;;;3.97;;
15476;SDS011;7840;42.702;23.296;2022-07-04T08:18:28;5.35;;;4.05;;
15476;SDS011;7840;42.702;23.296;2022-07-04T08:20:56;7.95;;;3.88;;
15476;SDS011;7840;42.702;23.296;2022-07-04T08:23:23;5.25;;;4.72;;
15476;SDS011;7840;42.702;23.296;2022-07-04T08:25:52;7.63;;;5.65;;
15476;SDS011;7840;42.702;23.296;2022-07-04T08:28:20;5.97;;;4.82;;
15476;SDS011;7840;42.702;23.296;2022-07-04T08:34:14;9.90;;;4.57;;
15476;SDS011;7840;42.702;23.296;2022-07-04T08:36:42;6.45;;;4.20;;
15476;SDS011;7840;42.702;23.296;2022-07-04T08:39:09;13.55;;;4.20;;
15476;SDS011;7840;42.702;23.296;2022-07-04T08:41:39;6.85;;;4.22;;
15476;SDS011;7840;42.702;23.296;2022-07-04T08:44:21;5.63;;;4.45;;
15476;SDS011;7840;42.702;23.296;2022-07-04T08:46:52;7.78;;;4.47;;
15476;SDS011;7840;42.702;23.296;2022-07-04T08:49:24;6.78;;;4.13;;
15476;SDS011;7840;42.702;23.296;2022-07-04T08:51:59;7.40;;;4.68;;
15476;SDS011;7840;42.702;23.296;2022-07-04T08:54:28;8.70;;;4.20;;
15476;SDS011;7840;42.702;23.296;2022-07-04T08:57:15;6.97;;;4.85;;
15476;SDS011;7840;42.702;23.296;2022-07-04T09:00:12;6.28;;;4.53;;
15476;SDS011;7840;42.702;23.296;2022-07-04T09:02:40;7.72;;;4.90;;
15476;SDS011;7840;42.702;23.296;2022-07-04T09:05:10;7.72;;;5.10;;
15476;SDS011;7840;42.702;23.296;2022-07-04T09:07:59;7.25;;;4.45;;
15476;SDS011;7840;42.702;23.296;2022-07-04T09:10:27;5.00;;;4.22;;
15476;SDS011;7840;42.702;23.296;2022-07-04T09:12:57;5.40;;;4.90;;
15476;SDS011;7840;42.702;23.296;2022-07-04T09:15:45;6.05;;;4.53;;
15476;SDS011;7840;42.702;23.296;2022-07-04T09:18:21;5.80;;;5.20;;
15476;SDS011;7840;42.702;23.296;2022-07-04T09:20:52;13.05;;;5.28;;
15476;SDS011;7840;42.702;23.296;2022-07-04T09:23:21;5.63;;;4.47;;
15476;SDS011;7840;42.702;23.296;2022-07-04T09:26:05;5.97;;;4.30;;
15476;SDS011;7840;42.702;23.296;2022-07-04T09:28:51;5.10;;;4.50;;
15476;SDS011;7840;42.702;23.296;2022-07-04T09:31:24;5.78;;;4.40;;
15476;SDS011;7840;42.702;23.296;2022-07-04T09:33:57;5.13;;;4.20;;
15476;SDS011;7840;42.702;23.296;2022-07-04T09:36:30;5.75;;;4.20;;
15476;SDS011;7840;42.702;23.296;2022-07-04T09:39:09;4.18;;;3.78;;
15476;SDS011;7840;42.702;23.296;2022-07-04T09:41:49;6.88;;;3.72;;
15476;SDS011;7840;42.702;23.296;2022-07-04T09:44:21;5.03;;;4.35;;
15476;SDS011;7840;42.702;23.296;2022-07-04T09:46:49;5.88;;;4.45;;
15476;SDS011;7840;42.702;23.296;2022-07-04T09:49:18;4.00;;;3.70;;
15476;SDS011;7840;42.702;23.296;2022-07-04T09:51:48;7.20;;;4.40;;
15476;SDS011;7840;42.702;23.296;2022-07-04T09:54:23;7.45;;;4.50;;
15476;SDS011;7840;42.702;23.296;2022-07-04T09:56:57;5.22;;;4.65;;
15476;SDS011;7840;42.702;23.296;2022-07-04T09:59:26;8.25;;;4.97;;
15476;SDS011;7840;42.702;23.296;2022-07-04T10:02:05;7.05;;;4.80;;
15476;SDS011;7840;42.702;23.296;2022-07-04T10:04:50;5.20;;;4.72;;
15476;SDS011;7840;42.702;23.296;2022-07-04T10:07:34;9.15;;;4.60;;
15476;SDS011;7840;42.702;23.296;2022-07-04T10:13:01;7.03;;;4.82;;
15476;SDS011;7840;42.702;23.296;2022-07-04T10:15:30;8.40;;;5.40;;
15476;SDS011;7840;42.702;23.296;2022-07-04T10:17:59;5.40;;;4.70;;
15476;SDS011;7840;42.702;23.296;2022-07-04T10:20:27;5.03;;;4.50;;
15476;SDS011;7840;42.702;23.296;2022-07-04T10:22:56;5.18;;;4.57;;
15476;SDS011;7840;42.702;23.296;2022-07-04T10:25:28;6.13;;;5.00;;
15476;SDS011;7840;42.702;23.296;2022-07-04T10:27:56;9.35;;;5.40;;
15476;SDS011;7840;42.702;23.296;2022-07-04T10:30:25;6.43;;;4.93;;
15476;SDS011;7840;42.702;23.296;2022-07-04T10:32:56;5.78;;;5.05;;
15476;SDS011;7840;42.702;23.296;2022-07-04T10:38:24;7.05;;;4.80;;
15476;SDS011;7840;42.702;23.296;2022-07-04T10:40:53;5.70;;;5.00;;
15476;SDS011;7840;42.702;23.296;2022-07-04T10:46:24;8.45;;;5.43;;
15476;SDS011;7840;42.702;23.296;2022-07-04T10:48:53;8.32;;;5.05;;
15476;SDS011;7840;42.702;23.296;2022-07-04T10:51:34;7.95;;;5.40;;
15476;SDS011;7840;42.702;23.296;2022-07-04T10:54:31;7.75;;;5.20;;
15476;SDS011;7840;42.702;23.296;2022-07-04T10:57:10;9.55;;;5.38;;
15476;SDS011;7840;42.702;23.296;2022-07-04T10:59:40;5.55;;;5.03;;
15476;SDS011;7840;42.702;23.296;2022-07-04T11:02:25;7.22;;;5.00;;
15476;SDS011;7840;42.702;23.296;2022-07-04T11:04:58;5.50;;;5.05;;
15476;SDS011;7840;42.702;23.296;2022-07-04T11:10:26;5.70;;;5.20;;
15476;SDS011;7840;42.702;23.296;2022-07-04T11:13:06;7.63;;;4.90;;
15476;SDS011;7840;42.702;23.296;2022-07-04T11:18:28;7.05;;;5.22;;
15476;SDS011;7840;42.702;23.296;2022-07-04T11:21:17;8.18;;;5.30;;
15476;SDS011;7840;42.702;23.296;2022-07-04T11:23:53;6.50;;;5.45;;
15476;SDS011;7840;42.702;23.296;2022-07-04T11:26:26;6.07;;;5.47;;
15476;SDS011;7840;42.702;23.296;2022-07-04T11:28:54;6.13;;;5.55;;
15476;SDS011;7840;42.702;23.296;2022-07-04T11:34:08;7.05;;;5.40;;
15476;SDS011;7840;42.702;23.296;2022-07-04T11:36:37;7.60;;;5.60;;
15476;SDS011;7840;42.702;23.296;2022-07-04T11:39:21;5.88;;;5.30;;
15476;SDS011;7840;42.702;23.296;2022-07-04T11:41:53;7.82;;;5.38;;
15476;SDS011;7840;42.702;23.296;2022-07-04T11:44:41;7.68;;;5.03;;
15476;SDS011;7840;42.702;23.296;2022-07-04T11:47:35;7.63;;;5.25;;
15476;SDS011;7840;42.702;23.296;2022-07-04T11:50:05;5.80;;;5.30;;
15476;SDS011;7840;42.702;23.296;2022-07-04T11:52:41;5.82;;;5.22;;
15476;SDS011;7840;42.702;23.296;2022-07-04T11:55:17;7.95;;;5.07;;
15476;SDS011;7840;42.702;23.296;2022-07-04T11:58:03;5.63;;;5.13;;
15476;SDS011;7840;42.702;23.296;2022-07-04T12:00:31;6.18;;;5.10;;
15476;SDS011;7840;42.702;23.296;2022-07-04T12:03:00;6.15;;;5.38;;
15476;SDS011;7840;42.702;23.296;2022-07-04T12:05:31;9.13;;;5.68;;
15476;SDS011;7840;42.702;23.296;2022-07-04T12:08:09;9.25;;;5.25;;
15476;SDS011;7840;42.702;23.296;2022-07-04T12:10:54;6.20;;;5.25;;
15476;SDS011;7840;42.702;23.296;2022-07-04T12:13:33;7.32;;;5.32;;
15476;SDS011;7840;42.702;23.296;2022-07-04T12:16:03;6.15;;;5.55;;
15476;SDS011;7840;42.702;23.296;2022-07-04T12:18:38;9.02;;;4.97;;
15476;SDS011;7840;42.702;23.296;2022-07-04T12:21:12;8.38;;;5.10;;
15476;SDS011;7840;42.702;23.296;2022-07-04T12:23:55;11.25;;;5.22;;
15476;SDS011;7840;42.702;23.296;2022-07-04T12:26:23;6.20;;;5.60;;
15476;SDS011;7840;42.702;23.296;2022-07-04T12:28:56;7.30;;;5.05;;
15476;SDS011;7840;42.702;23.296;2022-07-04T12:31:37;6.60;;;5.72;;
15476;SDS011;7840;42.702;23.296;2022-07-04T12:34:18;9.43;;;5.47;;
15476;SDS011;7840;42.702;23.296;2022-07-04T12:37:06;6.15;;;5.68;;
15476;SDS011;7840;42.702;23.296;2022-07-04T12:39:55;5.53;;;5.07;;
15476;SDS011;7840;42.702;23.296;2022-07-04T12:42:36;7.30;;;5.78;;
15476;SDS011;7840;42.702;23.296;2022-07-04T12:45:18;5.85;;;5.30;;
15476;SDS011;7840;42.702;23.296;2022-07-04T12:47:47;7.85;;;5.18;;
15476;SDS011;7840;42.702;23.296;2022-07-04T12:50:15;6.93;;;5.45;;
15476;SDS011;7840;42.702;23.296;2022-07-04T12:52:52;6.20;;;5.55;;
15476;SDS011;7840;42.702;23.296;2022-07-04T12:55:20;6.28;;;5.57;;
15476;SDS011;7840;42.702;23.296;2022-07-04T12:57:51;7.20;;;5.30;;
15476;SDS011;7840;42.702;23.296;2022-07-04T13:00:20;5.95;;;5.07;;
15476;SDS011;7840;42.702;23.296;2022-07-04T13:02:49;8.23;;;5.07;;
15476;SDS011;7840;42.702;23.296;2022-07-04T13:05:32;6.88;;;5.13;;
15476;SDS011;7840;42.702;23.296;2022-07-04T13:08:02;9.35;;;5.45;;
15476;SDS011;7840;42.702;23.296;2022-07-04T13:10:31;5.65;;;5.13;;
15476;SDS011;7840;42.702;23.296;2022-07-04T13:12:59;7.55;;;5.22;;
15476;SDS011;7840;42.702;23.296;2022-07-04T13:15:34;5.90;;;5.40;;
15476;SDS011;7840;42.702;23.296;2022-07-04T13:18:02;6.35;;;5.72;;
15476;SDS011;7840;42.702;23.296;2022-07-04T13:20:30;7.63;;;5.70;;
15476;SDS011;7840;42.702;23.296;2022-07-04T13:22:57;8.10;;;5.57;;
15476;SDS011;7840;42.702;23.296;2022-07-04T13:25:25;9.85;;;5.50;;
15476;SDS011;7840;42.702;23.296;2022-07-04T13:27:53;5.80;;;5.30;;
15476;SDS011;7840;42.702;23.296;2022-07-04T13:30:20;7.90;;;5.13;;
15476;SDS011;7840;42.702;23.296;2022-07-04T13:32:49;6.80;;;5.18;;
15476;SDS011;7840;42.702;23.296;2022-07-04T13:35:17;5.43;;;4.93;;
15476;SDS011;7840;42.702;23.296;2022-07-04T13:37:51;6.43;;;5.72;;
15476;SDS011;7840;42.702;23.296;2022-07-04T13:40:34;5.88;;;5.38;;
15476;SDS011;7840;42.702;23.296;2022-07-04T13:43:25;7.97;;;5.13;;
15476;SDS011;7840;42.702;23.296;2022-07-04T13:48:25;5.97;;;5.38;;
15476;SDS011;7840;42.702;23.296;2022-07-04T13:50:53;6.85;;;5.43;;
15476;SDS011;7840;42.702;23.296;2022-07-04T13:53:21;6.43;;;5.40;;
15476;SDS011;7840;42.702;23.296;2022-07-04T13:55:48;6.25;;;5.65;;
15476;SDS011;7840;42.702;23.296;2022-07-04T13:58:16;5.88;;;5.07;;
15476;SDS011;7840;42.702;23.296;2022-07-04T14:00:44;8.60;;;5.03;;
15476;SDS011;7840;42.702;23.296;2022-07-04T14:03:31;5.60;;;5.20;;
15476;SDS011;7840;42.702;23.296;2022-07-04T14:06:20;5.93;;;5.43;;
15476;SDS011;7840;42.702;23.296;2022-07-04T14:08:51;6.95;;;5.68;;
15476;SDS011;7840;42.702;23.296;2022-07-04T14:11:22;7.95;;;5.70;;
15476;SDS011;7840;42.702;23.296;2022-07-04T14:13:49;6.55;;;5.10;;
15476;SDS011;7840;42.702;23.296;2022-07-04T14:16:17;6.57;;;6.00;;
15476;SDS011;7840;42.702;23.296;2022-07-04T14:18:46;6.00;;;5.50;;
15476;SDS011;7840;42.702;23.296;2022-07-04T14:21:14;6.10;;;5.53;;
15476;SDS011;7840;42.702;23.296;2022-07-04T14:23:42;6.43;;;5.82;;
15476;SDS011;7840;42.702;23.296;2022-07-04T14:26:17;5.32;;;4.88;;
15476;SDS011;7840;42.702;23.296;2022-07-04T14:28:49;6.10;;;5.40;;
15476;SDS011;7840;42.702;23.296;2022-07-04T14:31:19;5.97;;;5.47;;
15476;SDS011;7840;42.702;23.296;2022-07-04T14:33:57;6.25;;;5.15;;
15476;SDS011;7840;42.702;23.296;2022-07-04T14:36:25;7.75;;;5.82;;
15476;SDS011;7840;42.702;23.296;2022-07-04T14:38:54;8.73;;;5.35;;
15476;SDS011;7840;42.702;23.296;2022-07-04T14:41:28;6.60;;;5.57;;
15476;SDS011;7840;42.702;23.296;2022-07-04T14:43:59;7.03;;;5.75;;
15476;SDS011;7840;42.702;23.296;2022-07-04T14:46:27;9.38;;;5.50;;
15476;SDS011;7840;42.702;23.296;2022-07-04T14:48:56;6.03;;;5.43;;
15476;SDS011;7840;42.702;23.296;2022-07-04T14:51:24;6.20;;;5.53;;
15476;SDS011;7840;42.702;23.296;2022-07-04T14:54:00;6.57;;;5.97;;
15476;SDS011;7840;42.702;23.296;2022-07-04T14:56:28;5.85;;;5.35;;
15476;SDS011;7840;42.702;23.296;2022-07-04T14:59:02;8.45;;;5.95;;
15476;SDS011;7840;42.702;23.296;2022-07-04T15:01:32;6.80;;;5.55;;
15476;SDS011;7840;42.702;23.296;2022-07-04T15:04:33;6.07;;;5.47;;
15476;SDS011;7840;42.702;23.296;2022-07-04T15:07:03;7.93;;;5.50;;
15476;SDS011;7840;42.702;23.296;2022-07-04T15:09:31;6.65;;;5.65;;
15476;SDS011;7840;42.702;23.296;2022-07-04T15:12:01;6.38;;;5.88;;
15476;SDS011;7840;42.702;23.296;2022-07-04T15:14:29;7.20;;;5.55;;
15476;SDS011;7840;42.702;23.296;2022-07-04T15:16:56;7.20;;;5.65;;
15476;SDS011;7840;42.702;23.296;2022-07-04T15:19:34;10.30;;;5.78;;
15476;SDS011;7840;42.702;23.296;2022-07-04T15:22:23;7.13;;;5.80;;
15476;SDS011;7840;42.702;23.296;2022-07-04T15:25:08;12.48;;;5.40;;
15476;SDS011;7840;42.702;23.296;2022-07-04T15:27:38;5.60;;;5.20;;
15476;SDS011;7840;42.702;23.296;2022-07-04T15:32:55;7.50;;;6.72;;
15476;SDS011;7840;42.702;23.296;2022-07-04T15:35:38;8.40;;;5.47;;
15476;SDS011;7840;42.702;23.296;2022-07-04T15:38:05;7.60;;;5.90;;
15476;SDS011;7840;42.702;23.296;2022-07-04T15:40:37;6.70;;;5.60;;
15476;SDS011;7840;42.702;23.296;2022-07-04T15:43:07;6.22;;;5.63;;
15476;SDS011;7840;42.702;23.296;2022-07-04T15:45:38;7.15;;;6.03;;